sensor_id;sensor_type;location;lat;lon;timestamp;P1;durP1;ratioP1;P2;durP2;ratioP2
47337;SDS011;33069;51.970;5.892;2023-03-31T00:02:10;18.13;;;4.63;;
47337;SDS011;33069;51.970;5.892;2023-03-31T00:04:39;14.73;;;3.35;;
47337;SDS011;33069;51.970;5.892;2023-03-31T00:07:16;16.52;;;3.92;;
47337;SDS011;33069;51.970;5.892;2023-03-31T00:09:49;14.93;;;3.70;;
47337;SDS011;33069;51.970;5.892;2023-03-31T00:12:19;18.65;;;4.85;;
47337;SDS011;33069;51.970;5.892;2023-03-31T00:14:45;16.85;;;4.30;;
47337;SDS011;33069;51.970;5.892;2023-03-31T00:17:11;18.35;;;3.60;;
47337;SDS011;33069;51.970;5.892;2023-03-31T00:19:38;12.88;;;3.70;;
47337;SDS011;33069;51.970;5.892;2023-03-31T00:22:06;14.43;;;4.35;;
47337;SDS011;33069;51.970;5.892;2023-03-31T00:24:32;17.17;;;3.95;;
47337;SDS011;33069;51.970;5.892;2023-03-31T00:26:59;20.98;;;4.82;;
47337;SDS011;33069;51.970;5.892;2023-03-31T00:29:28;20.50;;;5.13;;
47337;SDS011;33069;51.970;5.892;2023-03-31T00:31:55;19.35;;;4.60;;
47337;SDS011;33069;51.970;5.892;2023-03-31T00:34:23;16.70;;;4.13;;
47337;SDS011;33069;51.970;5.892;2023-03-31T00:36:49;15.18;;;4.55;;
47337;SDS011;33069;51.970;5.892;2023-03-31T00:39:16;16.17;;;4.15;;
47337;SDS011;33069;51.970;5.892;2023-03-31T00:41:43;15.38;;;3.58;;
47337;SDS011;33069;51.970;5.892;2023-03-31T00:44:19;13.00;;;3.90;;
47337;SDS011;33069;51.970;5.892;2023-03-31T00:49:47;15.23;;;3.70;;
47337;SDS011;33069;51.970;5.892;2023-03-31T00:52:26;14.27;;;4.20;;
47337;SDS011;33069;51.970;5.892;2023-03-31T00:55:04;17.45;;;3.92;;
47337;SDS011;33069;51.970;5.892;2023-03-31T00:57:35;12.73;;;3.13;;
47337;SDS011;33069;51.970;5.892;2023-03-31T01:00:05;15.07;;;3.72;;
47337;SDS011;33069;51.970;5.892;2023-03-31T01:02:40;16.90;;;3.30;;
47337;SDS011;33069;51.970;5.892;2023-03-31T01:05:10;19.20;;;3.72;;
47337;SDS011;33069;51.970;5.892;2023-03-31T01:07:37;17.25;;;4.53;;
47337;SDS011;33069;51.970;5.892;2023-03-31T01:10:08;13.32;;;3.17;;
47337;SDS011;33069;51.970;5.892;2023-03-31T01:12:36;12.63;;;3.47;;
47337;SDS011;33069;51.970;5.892;2023-03-31T01:15:08;16.70;;;4.45;;
47337;SDS011;33069;51.970;5.892;2023-03-31T01:17:34;14.52;;;3.92;;
47337;SDS011;33069;51.970;5.892;2023-03-31T01:20:19;15.95;;;3.38;;
47337;SDS011;33069;51.970;5.892;2023-03-31T01:28:17;15.02;;;4.18;;
47337;SDS011;33069;51.970;5.892;2023-03-31T01:39:06;12.93;;;3.53;;
47337;SDS011;33069;51.970;5.892;2023-03-31T01:44:27;13.77;;;2.60;;
47337;SDS011;33069;51.970;5.892;2023-03-31T01:52:21;11.65;;;2.70;;
47337;SDS011;33069;51.970;5.892;2023-03-31T01:57:39;10.52;;;2.78;;
47337;SDS011;33069;51.970;5.892;2023-03-31T02:00:10;9.38;;;2.58;;
47337;SDS011;33069;51.970;5.892;2023-03-31T02:02:38;11.50;;;3.20;;
47337;SDS011;33069;51.970;5.892;2023-03-31T02:05:13;16.13;;;3.33;;
47337;SDS011;33069;51.970;5.892;2023-03-31T02:07:51;12.10;;;3.50;;
47337;SDS011;33069;51.970;5.892;2023-03-31T02:10:24;17.88;;;3.85;;
47337;SDS011;33069;51.970;5.892;2023-03-31T02:12:53;9.48;;;2.97;;
47337;SDS011;33069;51.970;5.892;2023-03-31T02:15:22;10.30;;;3.20;;
47337;SDS011;33069;51.970;5.892;2023-03-31T02:17:52;16.95;;;4.18;;
47337;SDS011;33069;51.970;5.892;2023-03-31T02:20:23;15.18;;;4.53;;
47337;SDS011;33069;51.970;5.892;2023-03-31T02:22:51;13.30;;;3.65;;
47337;SDS011;33069;51.970;5.892;2023-03-31T02:25:21;15.38;;;3.38;;
47337;SDS011;33069;51.970;5.892;2023-03-31T02:27:52;14.75;;;3.92;;
47337;SDS011;33069;51.970;5.892;2023-03-31T02:33:19;13.15;;;3.55;;
47337;SDS011;33069;51.970;5.892;2023-03-31T02:35:45;18.13;;;5.75;;
47337;SDS011;33069;51.970;5.892;2023-03-31T02:38:11;16.13;;;4.88;;
47337;SDS011;33069;51.970;5.892;2023-03-31T02:40:36;13.38;;;3.83;;
47337;SDS011;33069;51.970;5.892;2023-03-31T02:43:02;21.20;;;3.72;;
47337;SDS011;33069;51.970;5.892;2023-03-31T02:45:47;17.38;;;4.53;;
47337;SDS011;33069;51.970;5.892;2023-03-31T02:48:25;17.75;;;4.20;;
47337;SDS011;33069;51.970;5.892;2023-03-31T02:53:53;15.60;;;5.20;;
47337;SDS011;33069;51.970;5.892;2023-03-31T02:59:21;15.38;;;3.35;;
47337;SDS011;33069;51.970;5.892;2023-03-31T03:02:16;13.82;;;3.00;;
47337;SDS011;33069;51.970;5.892;2023-03-31T03:04:52;17.60;;;4.75;;
47337;SDS011;33069;51.970;5.892;2023-03-31T03:10:40;15.07;;;3.55;;
47337;SDS011;33069;51.970;5.892;2023-03-31T03:13:35;16.35;;;3.25;;
47337;SDS011;33069;51.970;5.892;2023-03-31T03:16:11;13.63;;;3.42;;
47337;SDS011;33069;51.970;5.892;2023-03-31T03:18:44;14.15;;;2.70;;
47337;SDS011;33069;51.970;5.892;2023-03-31T03:21:23;16.90;;;3.17;;
47337;SDS011;33069;51.970;5.892;2023-03-31T03:23:49;14.18;;;2.53;;
47337;SDS011;33069;51.970;5.892;2023-03-31T03:26:17;15.93;;;2.80;;
47337;SDS011;33069;51.970;5.892;2023-03-31T03:28:47;11.55;;;3.25;;
47337;SDS011;33069;51.970;5.892;2023-03-31T03:31:14;15.27;;;2.95;;
47337;SDS011;33069;51.970;5.892;2023-03-31T03:33:40;15.60;;;3.30;;
47337;SDS011;33069;51.970;5.892;2023-03-31T03:36:06;16.98;;;3.33;;
47337;SDS011;33069;51.970;5.892;2023-03-31T03:38:32;14.75;;;2.97;;
47337;SDS011;33069;51.970;5.892;2023-03-31T03:40:58;13.98;;;3.15;;
47337;SDS011;33069;51.970;5.892;2023-03-31T03:43:23;17.55;;;3.80;;
47337;SDS011;33069;51.970;5.892;2023-03-31T03:45:49;15.52;;;3.55;;
47337;SDS011;33069;51.970;5.892;2023-03-31T03:48:16;14.43;;;3.35;;
47337;SDS011;33069;51.970;5.892;2023-03-31T03:50:42;17.85;;;4.53;;
47337;SDS011;33069;51.970;5.892;2023-03-31T03:53:09;18.25;;;3.85;;
47337;SDS011;33069;51.970;5.892;2023-03-31T03:55:35;24.95;;;5.07;;
47337;SDS011;33069;51.970;5.892;2023-03-31T03:58:01;24.08;;;4.95;;
47337;SDS011;33069;51.970;5.892;2023-03-31T04:00:27;17.30;;;4.63;;
47337;SDS011;33069;51.970;5.892;2023-03-31T04:02:52;20.02;;;6.00;;
47337;SDS011;33069;51.970;5.892;2023-03-31T04:05:18;18.20;;;4.13;;
47337;SDS011;33069;51.970;5.892;2023-03-31T04:07:44;19.10;;;4.50;;
47337;SDS011;33069;51.970;5.892;2023-03-31T04:10:10;24.88;;;4.53;;
47337;SDS011;33069;51.970;5.892;2023-03-31T04:12:36;19.00;;;4.22;;
47337;SDS011;33069;51.970;5.892;2023-03-31T04:15:02;14.93;;;4.03;;
47337;SDS011;33069;51.970;5.892;2023-03-31T04:17:28;21.80;;;4.75;;
47337;SDS011;33069;51.970;5.892;2023-03-31T04:20:02;23.10;;;4.63;;
47337;SDS011;33069;51.970;5.892;2023-03-31T04:22:30;25.30;;;4.18;;
47337;SDS011;33069;51.970;5.892;2023-03-31T04:25:02;30.55;;;5.18;;
47337;SDS011;33069;51.970;5.892;2023-03-31T04:27:29;25.60;;;4.85;;
47337;SDS011;33069;51.970;5.892;2023-03-31T04:29:57;17.60;;;4.38;;
47337;SDS011;33069;51.970;5.892;2023-03-31T04:32:23;19.63;;;4.57;;
47337;SDS011;33069;51.970;5.892;2023-03-31T04:34:49;23.90;;;5.05;;
47337;SDS011;33069;51.970;5.892;2023-03-31T04:37:15;21.35;;;5.10;;
47337;SDS011;33069;51.970;5.892;2023-03-31T04:39:41;22.17;;;4.90;;
47337;SDS011;33069;51.970;5.892;2023-03-31T04:42:10;24.70;;;4.90;;
47337;SDS011;33069;51.970;5.892;2023-03-31T04:44:36;21.92;;;4.50;;
47337;SDS011;33069;51.970;5.892;2023-03-31T04:47:02;26.00;;;4.97;;
47337;SDS011;33069;51.970;5.892;2023-03-31T04:49:31;16.13;;;3.70;;
47337;SDS011;33069;51.970;5.892;2023-03-31T04:51:57;19.55;;;4.13;;
47337;SDS011;33069;51.970;5.892;2023-03-31T04:54:23;24.55;;;5.38;;
47337;SDS011;33069;51.970;5.892;2023-03-31T04:56:48;20.45;;;3.72;;
47337;SDS011;33069;51.970;5.892;2023-03-31T04:59:14;20.48;;;4.22;;
47337;SDS011;33069;51.970;5.892;2023-03-31T05:01:40;18.17;;;4.22;;
47337;SDS011;33069;51.970;5.892;2023-03-31T05:04:08;18.73;;;4.03;;
47337;SDS011;33069;51.970;5.892;2023-03-31T05:06:34;19.52;;;3.65;;
47337;SDS011;33069;51.970;5.892;2023-03-31T05:09:00;20.55;;;4.60;;
47337;SDS011;33069;51.970;5.892;2023-03-31T05:11:25;20.70;;;4.18;;
47337;SDS011;33069;51.970;5.892;2023-03-31T05:13:52;17.90;;;4.43;;
47337;SDS011;33069;51.970;5.892;2023-03-31T05:16:18;13.15;;;3.20;;
47337;SDS011;33069;51.970;5.892;2023-03-31T05:18:44;14.35;;;3.40;;
47337;SDS011;33069;51.970;5.892;2023-03-31T05:21:11;16.77;;;3.65;;
47337;SDS011;33069;51.970;5.892;2023-03-31T05:23:38;19.45;;;4.38;;
47337;SDS011;33069;51.970;5.892;2023-03-31T05:26:04;22.80;;;4.05;;
47337;SDS011;33069;51.970;5.892;2023-03-31T05:28:30;13.18;;;3.15;;
47337;SDS011;33069;51.970;5.892;2023-03-31T05:30:57;13.65;;;3.25;;
47337;SDS011;33069;51.970;5.892;2023-03-31T05:33:25;14.57;;;3.78;;
47337;SDS011;33069;51.970;5.892;2023-03-31T05:35:51;15.52;;;5.32;;
47337;SDS011;33069;51.970;5.892;2023-03-31T05:38:17;18.45;;;3.80;;
47337;SDS011;33069;51.970;5.892;2023-03-31T05:40:43;16.85;;;3.35;;
47337;SDS011;33069;51.970;5.892;2023-03-31T05:43:08;14.10;;;2.92;;
47337;SDS011;33069;51.970;5.892;2023-03-31T05:45:34;16.20;;;3.47;;
47337;SDS011;33069;51.970;5.892;2023-03-31T05:48:00;16.33;;;3.90;;
47337;SDS011;33069;51.970;5.892;2023-03-31T05:50:26;19.15;;;3.58;;
47337;SDS011;33069;51.970;5.892;2023-03-31T05:52:51;17.38;;;3.90;;
47337;SDS011;33069;51.970;5.892;2023-03-31T05:55:17;21.15;;;4.18;;
47337;SDS011;33069;51.970;5.892;2023-03-31T05:57:43;13.27;;;4.00;;
47337;SDS011;33069;51.970;5.892;2023-03-31T06:00:08;13.30;;;4.57;;
47337;SDS011;33069;51.970;5.892;2023-03-31T06:02:35;20.17;;;3.60;;
47337;SDS011;33069;51.970;5.892;2023-03-31T06:05:01;18.05;;;3.40;;
47337;SDS011;33069;51.970;5.892;2023-03-31T06:07:27;13.05;;;3.40;;
47337;SDS011;33069;51.970;5.892;2023-03-31T06:09:53;14.07;;;3.38;;
47337;SDS011;33069;51.970;5.892;2023-03-31T06:12:19;10.02;;;3.30;;
47337;SDS011;33069;51.970;5.892;2023-03-31T06:14:45;16.80;;;3.53;;
47337;SDS011;33069;51.970;5.892;2023-03-31T06:17:11;17.00;;;4.03;;
47337;SDS011;33069;51.970;5.892;2023-03-31T06:19:36;12.52;;;3.42;;
47337;SDS011;33069;51.970;5.892;2023-03-31T06:22:02;13.13;;;4.18;;
47337;SDS011;33069;51.970;5.892;2023-03-31T06:24:28;16.85;;;3.85;;
47337;SDS011;33069;51.970;5.892;2023-03-31T06:26:53;13.95;;;3.75;;
47337;SDS011;33069;51.970;5.892;2023-03-31T06:29:19;13.82;;;3.22;;
47337;SDS011;33069;51.970;5.892;2023-03-31T06:31:45;13.07;;;2.97;;
47337;SDS011;33069;51.970;5.892;2023-03-31T06:34:10;12.98;;;3.25;;
47337;SDS011;33069;51.970;5.892;2023-03-31T06:36:36;13.93;;;3.03;;
47337;SDS011;33069;51.970;5.892;2023-03-31T06:39:02;14.55;;;3.22;;
47337;SDS011;33069;51.970;5.892;2023-03-31T06:41:28;9.00;;;2.15;;
47337;SDS011;33069;51.970;5.892;2023-03-31T06:43:53;11.32;;;2.67;;
47337;SDS011;33069;51.970;5.892;2023-03-31T06:46:19;12.10;;;2.63;;
47337;SDS011;33069;51.970;5.892;2023-03-31T06:48:45;6.43;;;1.90;;
47337;SDS011;33069;51.970;5.892;2023-03-31T06:51:10;9.45;;;2.28;;
47337;SDS011;33069;51.970;5.892;2023-03-31T06:53:37;10.98;;;2.17;;
47337;SDS011;33069;51.970;5.892;2023-03-31T06:56:02;9.60;;;2.33;;
47337;SDS011;33069;51.970;5.892;2023-03-31T06:58:30;11.98;;;2.15;;
47337;SDS011;33069;51.970;5.892;2023-03-31T07:00:56;6.40;;;1.92;;
47337;SDS011;33069;51.970;5.892;2023-03-31T07:03:22;11.38;;;2.55;;
47337;SDS011;33069;51.970;5.892;2023-03-31T07:05:49;15.50;;;2.58;;
47337;SDS011;33069;51.970;5.892;2023-03-31T07:08:19;10.80;;;2.50;;
47337;SDS011;33069;51.970;5.892;2023-03-31T07:10:46;12.27;;;2.90;;
47337;SDS011;33069;51.970;5.892;2023-03-31T07:13:16;9.57;;;2.60;;
47337;SDS011;33069;51.970;5.892;2023-03-31T07:15:42;13.23;;;3.17;;
47337;SDS011;33069;51.970;5.892;2023-03-31T07:18:11;10.38;;;2.50;;
47337;SDS011;33069;51.970;5.892;2023-03-31T07:20:39;12.23;;;2.58;;
47337;SDS011;33069;51.970;5.892;2023-03-31T07:23:05;11.18;;;2.90;;
47337;SDS011;33069;51.970;5.892;2023-03-31T07:25:32;15.30;;;2.55;;
47337;SDS011;33069;51.970;5.892;2023-03-31T07:27:58;10.80;;;2.40;;
47337;SDS011;33069;51.970;5.892;2023-03-31T07:30:25;12.55;;;2.63;;
47337;SDS011;33069;51.970;5.892;2023-03-31T07:32:51;12.35;;;2.92;;
47337;SDS011;33069;51.970;5.892;2023-03-31T07:35:18;9.50;;;2.95;;
47337;SDS011;33069;51.970;5.892;2023-03-31T07:37:46;14.90;;;3.20;;
47337;SDS011;33069;51.970;5.892;2023-03-31T07:40:19;8.30;;;2.95;;
47337;SDS011;33069;51.970;5.892;2023-03-31T07:42:47;14.60;;;3.03;;
47337;SDS011;33069;51.970;5.892;2023-03-31T07:45:15;14.32;;;3.15;;
47337;SDS011;33069;51.970;5.892;2023-03-31T07:47:42;9.80;;;2.70;;
47337;SDS011;33069;51.970;5.892;2023-03-31T07:50:10;14.27;;;3.40;;
47337;SDS011;33069;51.970;5.892;2023-03-31T07:52:37;14.05;;;3.25;;
47337;SDS011;33069;51.970;5.892;2023-03-31T07:55:03;10.60;;;2.90;;
47337;SDS011;33069;51.970;5.892;2023-03-31T07:57:30;14.48;;;3.42;;
47337;SDS011;33069;51.970;5.892;2023-03-31T07:59:55;9.05;;;2.95;;
47337;SDS011;33069;51.970;5.892;2023-03-31T08:02:21;10.52;;;3.25;;
47337;SDS011;33069;51.970;5.892;2023-03-31T08:04:47;12.85;;;3.13;;
47337;SDS011;33069;51.970;5.892;2023-03-31T08:07:13;7.55;;;2.80;;
47337;SDS011;33069;51.970;5.892;2023-03-31T08:09:42;9.02;;;2.80;;
47337;SDS011;33069;51.970;5.892;2023-03-31T08:12:09;9.38;;;2.63;;
47337;SDS011;33069;51.970;5.892;2023-03-31T08:14:34;10.07;;;2.78;;
47337;SDS011;33069;51.970;5.892;2023-03-31T08:17:00;12.48;;;2.72;;
47337;SDS011;33069;51.970;5.892;2023-03-31T08:19:26;8.43;;;2.20;;
47337;SDS011;33069;51.970;5.892;2023-03-31T08:21:52;9.20;;;2.33;;
47337;SDS011;33069;51.970;5.892;2023-03-31T08:24:18;6.65;;;1.88;;
47337;SDS011;33069;51.970;5.892;2023-03-31T08:26:44;11.27;;;2.80;;
47337;SDS011;33069;51.970;5.892;2023-03-31T08:29:10;12.10;;;2.55;;
47337;SDS011;33069;51.970;5.892;2023-03-31T08:31:35;8.13;;;2.05;;
47337;SDS011;33069;51.970;5.892;2023-03-31T08:34:01;10.75;;;2.80;;
47337;SDS011;33069;51.970;5.892;2023-03-31T08:36:27;7.60;;;2.72;;
47337;SDS011;33069;51.970;5.892;2023-03-31T08:38:53;7.78;;;2.15;;
47337;SDS011;33069;51.970;5.892;2023-03-31T08:43:51;14.27;;;2.88;;
47337;SDS011;33069;51.970;5.892;2023-03-31T08:46:21;12.45;;;3.85;;
47337;SDS011;33069;51.970;5.892;2023-03-31T08:48:48;13.88;;;3.22;;
47337;SDS011;33069;51.970;5.892;2023-03-31T08:51:20;17.55;;;3.55;;
47337;SDS011;33069;51.970;5.892;2023-03-31T08:53:49;19.80;;;3.53;;
47337;SDS011;33069;51.970;5.892;2023-03-31T08:56:21;13.10;;;3.78;;
47337;SDS011;33069;51.970;5.892;2023-03-31T08:58:50;17.38;;;3.65;;
47337;SDS011;33069;51.970;5.892;2023-03-31T09:11:53;18.00;;;3.78;;
47337;SDS011;33069;51.970;5.892;2023-03-31T09:14:25;16.08;;;4.25;;
47337;SDS011;33069;51.970;5.892;2023-03-31T09:19:29;20.48;;;5.22;;
47337;SDS011;33069;51.970;5.892;2023-03-31T09:22:02;22.30;;;4.30;;
47337;SDS011;33069;51.970;5.892;2023-03-31T09:24:35;19.35;;;3.80;;
47337;SDS011;33069;51.970;5.892;2023-03-31T09:27:23;18.30;;;4.25;;
47337;SDS011;33069;51.970;5.892;2023-03-31T09:30:00;16.30;;;4.30;;
47337;SDS011;33069;51.970;5.892;2023-03-31T09:32:50;16.38;;;4.60;;
47337;SDS011;33069;51.970;5.892;2023-03-31T09:35:20;19.60;;;4.00;;
47337;SDS011;33069;51.970;5.892;2023-03-31T09:37:47;19.88;;;4.43;;
47337;SDS011;33069;51.970;5.892;2023-03-31T09:40:15;17.45;;;4.78;;
47337;SDS011;33069;51.970;5.892;2023-03-31T09:42:43;20.83;;;4.35;;
47337;SDS011;33069;51.970;5.892;2023-03-31T09:45:16;20.23;;;5.15;;
47337;SDS011;33069;51.970;5.892;2023-03-31T09:47:43;25.80;;;5.40;;
47337;SDS011;33069;51.970;5.892;2023-03-31T09:50:14;21.27;;;4.95;;
47337;SDS011;33069;51.970;5.892;2023-03-31T09:52:42;23.42;;;5.47;;
47337;SDS011;33069;51.970;5.892;2023-03-31T09:55:22;15.90;;;4.60;;
47337;SDS011;33069;51.970;5.892;2023-03-31T09:58:00;21.40;;;5.32;;
47337;SDS011;33069;51.970;5.892;2023-03-31T10:00:31;17.20;;;4.18;;
47337;SDS011;33069;51.970;5.892;2023-03-31T10:03:00;21.35;;;5.35;;
47337;SDS011;33069;51.970;5.892;2023-03-31T10:05:32;18.75;;;5.15;;
47337;SDS011;33069;51.970;5.892;2023-03-31T10:10:45;20.25;;;4.25;;
47337;SDS011;33069;51.970;5.892;2023-03-31T10:13:28;20.50;;;3.65;;
47337;SDS011;33069;51.970;5.892;2023-03-31T10:16:02;20.63;;;4.22;;
47337;SDS011;33069;51.970;5.892;2023-03-31T10:18:34;19.30;;;4.68;;
47337;SDS011;33069;51.970;5.892;2023-03-31T10:21:03;16.30;;;3.75;;
47337;SDS011;33069;51.970;5.892;2023-03-31T10:23:32;19.75;;;4.00;;
47337;SDS011;33069;51.970;5.892;2023-03-31T10:25:59;16.90;;;3.88;;
47337;SDS011;33069;51.970;5.892;2023-03-31T10:28:27;19.95;;;3.83;;
47337;SDS011;33069;51.970;5.892;2023-03-31T10:30:57;18.85;;;4.90;;
47337;SDS011;33069;51.970;5.892;2023-03-31T10:33:28;21.77;;;4.13;;
47337;SDS011;33069;51.970;5.892;2023-03-31T10:35:59;17.95;;;4.13;;
47337;SDS011;33069;51.970;5.892;2023-03-31T10:38:37;19.00;;;3.42;;
47337;SDS011;33069;51.970;5.892;2023-03-31T10:41:07;14.27;;;3.45;;
47337;SDS011;33069;51.970;5.892;2023-03-31T10:43:46;22.30;;;3.75;;
47337;SDS011;33069;51.970;5.892;2023-03-31T10:46:15;14.85;;;4.03;;
47337;SDS011;33069;51.970;5.892;2023-03-31T10:48:41;18.15;;;4.43;;
47337;SDS011;33069;51.970;5.892;2023-03-31T10:51:24;15.82;;;3.47;;
47337;SDS011;33069;51.970;5.892;2023-03-31T10:53:52;14.23;;;4.03;;
47337;SDS011;33069;51.970;5.892;2023-03-31T11:04:15;15.98;;;4.00;;
47337;SDS011;33069;51.970;5.892;2023-03-31T11:12:18;14.30;;;3.58;;
47337;SDS011;33069;51.970;5.892;2023-03-31T11:15:01;14.95;;;4.18;;
47337;SDS011;33069;51.970;5.892;2023-03-31T11:26:08;15.07;;;4.00;;
47337;SDS011;33069;51.970;5.892;2023-03-31T11:31:51;20.55;;;4.47;;
47337;SDS011;33069;51.970;5.892;2023-03-31T11:39:25;13.05;;;4.47;;
47337;SDS011;33069;51.970;5.892;2023-03-31T11:41:53;17.77;;;4.15;;
47337;SDS011;33069;51.970;5.892;2023-03-31T11:44:41;16.95;;;4.63;;
47337;SDS011;33069;51.970;5.892;2023-03-31T11:47:23;13.35;;;4.55;;
47337;SDS011;33069;51.970;5.892;2023-03-31T11:49:53;12.38;;;3.83;;
47337;SDS011;33069;51.970;5.892;2023-03-31T11:52:28;15.60;;;4.30;;
47337;SDS011;33069;51.970;5.892;2023-03-31T12:00:19;17.70;;;4.72;;
47337;SDS011;33069;51.970;5.892;2023-03-31T12:05:44;11.90;;;4.38;;
47337;SDS011;33069;51.970;5.892;2023-03-31T12:08:25;12.60;;;3.70;;
47337;SDS011;33069;51.970;5.892;2023-03-31T12:11:01;12.77;;;3.78;;
47337;SDS011;33069;51.970;5.892;2023-03-31T12:14:00;15.70;;;3.40;;
47337;SDS011;33069;51.970;5.892;2023-03-31T12:16:45;18.17;;;5.97;;
47337;SDS011;33069;51.970;5.892;2023-03-31T12:22:11;18.80;;;4.28;;
47337;SDS011;33069;51.970;5.892;2023-03-31T12:24:41;15.38;;;4.95;;
47337;SDS011;33069;51.970;5.892;2023-03-31T12:27:15;17.30;;;4.28;;
47337;SDS011;33069;51.970;5.892;2023-03-31T12:29:51;16.52;;;3.95;;
47337;SDS011;33069;51.970;5.892;2023-03-31T12:32:28;14.85;;;4.55;;
47337;SDS011;33069;51.970;5.892;2023-03-31T12:34:59;19.30;;;4.63;;
47337;SDS011;33069;51.970;5.892;2023-03-31T12:42:57;13.85;;;4.30;;
47337;SDS011;33069;51.970;5.892;2023-03-31T12:48:38;16.48;;;4.90;;
47337;SDS011;33069;51.970;5.892;2023-03-31T12:56:24;12.57;;;3.58;;
47337;SDS011;33069;51.970;5.892;2023-03-31T12:58:49;15.45;;;4.32;;
47337;SDS011;33069;51.970;5.892;2023-03-31T13:01:16;11.23;;;3.25;;
47337;SDS011;33069;51.970;5.892;2023-03-31T13:03:53;10.25;;;3.70;;
47337;SDS011;33069;51.970;5.892;2023-03-31T13:06:44;16.13;;;4.28;;
47337;SDS011;33069;51.970;5.892;2023-03-31T13:11:49;16.58;;;3.63;;
47337;SDS011;33069;51.970;5.892;2023-03-31T13:16:45;12.90;;;3.60;;
47337;SDS011;33069;51.970;5.892;2023-03-31T13:21:58;10.98;;;3.53;;
47337;SDS011;33069;51.970;5.892;2023-03-31T13:24:25;13.27;;;3.13;;
47337;SDS011;33069;51.970;5.892;2023-03-31T13:26:53;8.77;;;2.90;;
47337;SDS011;33069;51.970;5.892;2023-03-31T13:29:42;10.50;;;3.67;;
47337;SDS011;33069;51.970;5.892;2023-03-31T13:37:21;12.25;;;3.20;;
47337;SDS011;33069;51.970;5.892;2023-03-31T13:46:02;15.13;;;3.03;;
47337;SDS011;33069;51.970;5.892;2023-03-31T13:52:02;16.00;;;3.20;;
47337;SDS011;33069;51.970;5.892;2023-03-31T13:57:44;17.55;;;2.95;;
47337;SDS011;33069;51.970;5.892;2023-03-31T14:03:26;15.32;;;3.40;;
47337;SDS011;33069;51.970;5.892;2023-03-31T14:08:51;16.15;;;3.13;;
47337;SDS011;33069;51.970;5.892;2023-03-31T14:11:29;11.48;;;3.47;;
47337;SDS011;33069;51.970;5.892;2023-03-31T14:14:12;15.00;;;2.90;;
47337;SDS011;33069;51.970;5.892;2023-03-31T14:22:37;19.10;;;3.20;;
47337;SDS011;33069;51.970;5.892;2023-03-31T14:25:36;11.60;;;2.55;;
47337;SDS011;33069;51.970;5.892;2023-03-31T14:36:58;9.32;;;2.28;;
47337;SDS011;33069;51.970;5.892;2023-03-31T14:39:35;12.70;;;2.33;;
47337;SDS011;33069;51.970;5.892;2023-03-31T14:42:10;8.40;;;2.50;;
47337;SDS011;33069;51.970;5.892;2023-03-31T14:44:44;11.07;;;2.20;;
47337;SDS011;33069;51.970;5.892;2023-03-31T14:47:18;9.55;;;2.20;;
47337;SDS011;33069;51.970;5.892;2023-03-31T14:49:46;11.95;;;2.33;;
47337;SDS011;33069;51.970;5.892;2023-03-31T14:52:21;8.60;;;2.10;;
47337;SDS011;33069;51.970;5.892;2023-03-31T14:54:51;9.43;;;2.20;;
47337;SDS011;33069;51.970;5.892;2023-03-31T14:57:23;8.70;;;2.05;;
47337;SDS011;33069;51.970;5.892;2023-03-31T15:00:07;7.88;;;1.80;;
47337;SDS011;33069;51.970;5.892;2023-03-31T15:02:39;9.35;;;2.10;;
47337;SDS011;33069;51.970;5.892;2023-03-31T15:05:07;8.38;;;2.15;;
47337;SDS011;33069;51.970;5.892;2023-03-31T15:07:35;9.75;;;2.63;;
47337;SDS011;33069;51.970;5.892;2023-03-31T15:10:02;8.85;;;1.92;;
47337;SDS011;33069;51.970;5.892;2023-03-31T15:12:29;7.72;;;2.08;;
47337;SDS011;33069;51.970;5.892;2023-03-31T15:15:04;7.63;;;2.42;;
47337;SDS011;33069;51.970;5.892;2023-03-31T15:17:36;7.13;;;1.85;;
47337;SDS011;33069;51.970;5.892;2023-03-31T15:20:20;11.45;;;2.15;;
47337;SDS011;33069;51.970;5.892;2023-03-31T15:22:55;8.65;;;2.67;;
47337;SDS011;33069;51.970;5.892;2023-03-31T15:25:26;8.43;;;1.95;;
47337;SDS011;33069;51.970;5.892;2023-03-31T15:28:05;9.07;;;1.88;;
47337;SDS011;33069;51.970;5.892;2023-03-31T15:30:35;5.70;;;1.60;;
47337;SDS011;33069;51.970;5.892;2023-03-31T15:33:04;7.60;;;1.95;;
47337;SDS011;33069;51.970;5.892;2023-03-31T15:35:32;6.05;;;1.73;;
47337;SDS011;33069;51.970;5.892;2023-03-31T15:38:00;10.52;;;2.13;;
47337;SDS011;33069;51.970;5.892;2023-03-31T15:42:56;9.30;;;1.83;;
47337;SDS011;33069;51.970;5.892;2023-03-31T15:45:45;9.55;;;2.40;;
47337;SDS011;33069;51.970;5.892;2023-03-31T15:48:15;6.93;;;1.65;;
47337;SDS011;33069;51.970;5.892;2023-03-31T15:50:48;8.98;;;2.17;;
47337;SDS011;33069;51.970;5.892;2023-03-31T15:56:07;7.68;;;1.83;;
47337;SDS011;33069;51.970;5.892;2023-03-31T15:58:58;8.15;;;2.00;;
47337;SDS011;33069;51.970;5.892;2023-03-31T16:01:28;8.82;;;1.90;;
47337;SDS011;33069;51.970;5.892;2023-03-31T16:03:56;5.65;;;1.67;;
47337;SDS011;33069;51.970;5.892;2023-03-31T16:07:06;6.57;;;2.35;;
47337;SDS011;33069;51.970;5.892;2023-03-31T16:12:09;6.60;;;1.52;;
47337;SDS011;33069;51.970;5.892;2023-03-31T16:14:50;6.13;;;1.50;;
47337;SDS011;33069;51.970;5.892;2023-03-31T16:19:56;5.78;;;1.45;;
47337;SDS011;33069;51.970;5.892;2023-03-31T16:22:28;4.20;;;1.02;;
47337;SDS011;33069;51.970;5.892;2023-03-31T16:24:59;5.90;;;1.30;;
47337;SDS011;33069;51.970;5.892;2023-03-31T16:27:25;8.88;;;1.83;;
47337;SDS011;33069;51.970;5.892;2023-03-31T16:29:54;6.57;;;1.70;;
47337;SDS011;33069;51.970;5.892;2023-03-31T16:32:31;5.05;;;2.03;;
47337;SDS011;33069;51.970;5.892;2023-03-31T16:34:57;3.28;;;1.15;;
47337;SDS011;33069;51.970;5.892;2023-03-31T16:37:24;2.35;;;1.30;;
47337;SDS011;33069;51.970;5.892;2023-03-31T16:39:50;4.97;;;1.05;;
47337;SDS011;33069;51.970;5.892;2023-03-31T16:42:16;3.17;;;1.10;;
47337;SDS011;33069;51.970;5.892;2023-03-31T16:44:42;3.35;;;1.10;;
47337;SDS011;33069;51.970;5.892;2023-03-31T16:47:10;3.45;;;1.20;;
47337;SDS011;33069;51.970;5.892;2023-03-31T16:49:39;3.78;;;1.13;;
47337;SDS011;33069;51.970;5.892;2023-03-31T16:52:05;3.67;;;1.10;;
47337;SDS011;33069;51.970;5.892;2023-03-31T16:54:33;3.90;;;1.25;;
47337;SDS011;33069;51.970;5.892;2023-03-31T16:56:59;1.77;;;1.10;;
47337;SDS011;33069;51.970;5.892;2023-03-31T16:59:25;2.75;;;1.05;;
47337;SDS011;33069;51.970;5.892;2023-03-31T17:01:51;4.68;;;1.60;;
47337;SDS011;33069;51.970;5.892;2023-03-31T17:04:16;4.53;;;1.50;;
47337;SDS011;33069;51.970;5.892;2023-03-31T17:06:43;7.32;;;1.75;;
47337;SDS011;33069;51.970;5.892;2023-03-31T17:09:09;8.15;;;1.95;;
47337;SDS011;33069;51.970;5.892;2023-03-31T17:11:35;4.50;;;1.33;;
47337;SDS011;33069;51.970;5.892;2023-03-31T17:14:01;3.28;;;1.30;;
47337;SDS011;33069;51.970;5.892;2023-03-31T17:16:29;5.28;;;1.30;;
47337;SDS011;33069;51.970;5.892;2023-03-31T17:18:55;2.80;;;1.02;;
47337;SDS011;33069;51.970;5.892;2023-03-31T17:21:21;5.18;;;1.02;;
47337;SDS011;33069;51.970;5.892;2023-03-31T17:23:47;4.38;;;1.50;;
47337;SDS011;33069;51.970;5.892;2023-03-31T17:26:13;6.03;;;1.30;;
47337;SDS011;33069;51.970;5.892;2023-03-31T17:28:40;6.07;;;1.70;;
47337;SDS011;33069;51.970;5.892;2023-03-31T17:31:13;5.10;;;1.95;;
47337;SDS011;33069;51.970;5.892;2023-03-31T17:33:40;7.95;;;1.42;;
47337;SDS011;33069;51.970;5.892;2023-03-31T17:36:07;5.55;;;2.15;;
47337;SDS011;33069;51.970;5.892;2023-03-31T17:38:34;7.68;;;2.95;;
47337;SDS011;33069;51.970;5.892;2023-03-31T17:41:06;6.10;;;1.70;;
47337;SDS011;33069;51.970;5.892;2023-03-31T17:43:33;10.00;;;2.73;;
47337;SDS011;33069;51.970;5.892;2023-03-31T17:46:08;6.47;;;2.55;;